createdAt,value
2022-11-07T00:01:41.297Z,3.03
2022-11-07T00:04:08.088Z,2.42
2022-11-07T00:06:37.406Z,2.58
2022-11-07T00:09:04.730Z,2.47
2022-11-07T00:11:31.626Z,3.00
2022-11-07T00:13:58.516Z,2.78
2022-11-07T00:16:26.692Z,2.60
2022-11-07T00:18:53.531Z,3.03
2022-11-07T00:21:20.466Z,2.80
2022-11-07T00:23:47.326Z,3.40
2022-11-07T00:26:15.027Z,2.70
2022-11-07T00:28:43.667Z,3.47
2022-11-07T00:31:12.711Z,2.75
2022-11-07T00:33:40.273Z,3.10
2022-11-07T00:36:07.524Z,2.85
2022-11-07T00:38:34.363Z,3.25
2022-11-07T00:41:06.479Z,2.50
2022-11-07T00:43:33.702Z,2.75
2022-11-07T00:46:02.668Z,3.08
2022-11-07T00:48:29.856Z,2.97
2022-11-07T00:50:56.733Z,4.03
2022-11-07T00:53:23.923Z,3.38
2022-11-07T00:55:50.732Z,2.92
2022-11-07T00:58:17.802Z,3.08
2022-11-07T01:03:29.970Z,2.97
2022-11-07T01:06:01.884Z,3.45
2022-11-07T01:19:46.882Z,3.72
2022-11-07T01:22:14.900Z,3.13
2022-11-07T01:24:42.115Z,4.40
2022-11-07T01:27:08.843Z,3.63
2022-11-07T01:29:35.667Z,3.75
2022-11-07T01:32:02.424Z,3.90
2022-11-07T01:34:29.216Z,2.83
2022-11-07T01:36:56.196Z,3.85
2022-11-07T01:41:51.007Z,3.50
2022-11-07T01:44:17.778Z,3.50
2022-11-07T01:46:46.194Z,3.83
2022-11-07T01:49:13.257Z,3.13
2022-11-07T01:52:02.153Z,3.25
2022-11-07T01:54:36.310Z,4.07
2022-11-07T01:57:15.402Z,3.55
2022-11-07T01:59:42.561Z,3.50
2022-11-07T02:02:10.006Z,4.00
2022-11-07T02:04:37.382Z,3.50
2022-11-07T02:07:20.739Z,3.83
2022-11-07T02:09:48.678Z,3.92
2022-11-07T02:12:17.129Z,4.82
2022-11-07T02:14:44.480Z,3.92
2022-11-07T02:17:12.643Z,3.25
2022-11-07T02:19:43.311Z,3.80
2022-11-07T02:22:14.340Z,3.75
2022-11-07T02:24:41.554Z,3.35
2022-11-07T02:27:13.435Z,3.90
2022-11-07T02:29:43.746Z,3.53
2022-11-07T02:32:12.163Z,3.40
2022-11-07T02:34:38.972Z,3.47
2022-11-07T02:37:18.112Z,3.17
2022-11-07T02:39:45.031Z,3.65
2022-11-07T02:42:11.887Z,3.55
2022-11-07T02:44:38.847Z,3.92
2022-11-07T02:49:32.485Z,3.38
2022-11-07T02:54:26.103Z,3.40
2022-11-07T02:56:52.910Z,3.75
2022-11-07T02:59:24.276Z,4.15
2022-11-07T03:01:53.701Z,3.15
2022-11-07T03:04:20.545Z,3.88
2022-11-07T03:06:47.442Z,2.97
2022-11-07T03:09:14.323Z,3.35
2022-11-07T03:11:41.123Z,3.95
2022-11-07T03:14:07.891Z,4.20
2022-11-07T03:16:34.921Z,3.60
2022-11-07T03:21:28.516Z,4.93
2022-11-07T03:23:55.250Z,3.67
2022-11-07T03:26:22.290Z,4.43
2022-11-07T03:31:15.835Z,4.90
2022-11-07T03:33:42.793Z,4.63
2022-11-07T03:38:36.697Z,4.18
2022-11-07T03:41:03.660Z,4.15
2022-11-07T03:45:57.222Z,3.58
2022-11-07T03:48:24.052Z,4.55
2022-11-07T03:50:51.001Z,3.85
2022-11-07T03:53:23.851Z,4.95
2022-11-07T03:55:55.365Z,4.18
2022-11-07T03:58:22.736Z,3.70
2022-11-07T04:00:49.769Z,3.72
2022-11-07T04:05:43.816Z,4.20
2022-11-07T04:08:10.651Z,4.50
2022-11-07T04:10:37.611Z,4.07
2022-11-07T04:16:12.333Z,3.50
2022-11-07T04:18:41.818Z,4.28
2022-11-07T04:21:08.665Z,3.65
2022-11-07T04:23:35.485Z,3.78
2022-11-07T04:26:20.937Z,3.78
2022-11-07T04:28:47.790Z,3.50
2022-11-07T04:31:14.582Z,3.45
2022-11-07T04:33:41.305Z,3.40
2022-11-07T04:36:08.582Z,4.95
2022-11-07T04:38:35.438Z,3.15
2022-11-07T04:41:04.105Z,3.28
2022-11-07T04:43:30.948Z,3.25
2022-11-07T04:45:57.907Z,3.55
2022-11-07T04:50:51.929Z,3.00
2022-11-07T04:53:19.020Z,3.60
2022-11-07T04:55:46.752Z,3.53
2022-11-07T04:58:13.649Z,3.20
2022-11-07T05:00:40.502Z,3.55
2022-11-07T05:03:07.405Z,4.32
2022-11-07T05:05:34.308Z,3.63
2022-11-07T05:08:01.293Z,3.55
2022-11-07T05:12:56.700Z,2.75
2022-11-07T05:15:23.997Z,3.05
2022-11-07T05:17:51.000Z,2.67
2022-11-07T05:23:10.961Z,2.72
2022-11-07T05:25:42.366Z,2.65
2022-11-07T05:28:10.940Z,3.00
2022-11-07T05:30:42.770Z,2.85
2022-11-07T05:33:11.462Z,2.75
2022-11-07T05:35:38.586Z,2.90
2022-11-07T05:38:05.903Z,2.83
2022-11-07T05:40:35.208Z,2.85
2022-11-07T05:43:04.023Z,3.28
2022-11-07T05:45:32.087Z,2.85
2022-11-07T05:48:00.787Z,3.15
2022-11-07T05:50:28.917Z,3.03
2022-11-07T05:52:56.574Z,2.95
2022-11-07T05:55:24.672Z,2.47
2022-11-07T05:57:51.877Z,2.60
2022-11-07T06:00:19.368Z,2.63
2022-11-07T06:02:53.296Z,2.95
2022-11-07T06:05:23.994Z,3.30
2022-11-07T06:07:51.576Z,2.53
2022-11-07T06:10:19.385Z,3.28
2022-11-07T06:12:46.377Z,2.92
2022-11-07T06:17:40.167Z,2.63
2022-11-07T06:20:07.446Z,2.90
2022-11-07T06:22:34.192Z,2.90
2022-11-07T06:25:01.098Z,2.75
2022-11-07T06:27:27.952Z,2.78
2022-11-07T06:29:54.904Z,3.10
2022-11-07T06:34:48.412Z,2.28
2022-11-07T06:37:15.175Z,2.85
2022-11-07T06:39:41.955Z,3.05
2022-11-07T06:42:08.826Z,3.85
2022-11-07T06:44:35.524Z,3.00
2022-11-07T06:47:02.303Z,3.05
2022-11-07T06:49:29.100Z,3.25
2022-11-07T06:51:55.822Z,2.63
2022-11-07T06:54:22.579Z,3.40
2022-11-07T06:56:49.454Z,2.45
2022-11-07T06:59:16.228Z,4.00
2022-11-07T07:01:43.089Z,2.90
2022-11-07T07:06:39.968Z,2.47
2022-11-07T07:11:37.609Z,3.08
2022-11-07T07:14:11.572Z,1.80
2022-11-07T07:16:39.678Z,1.75
2022-11-07T07:19:06.548Z,2.10
2022-11-07T07:21:34.250Z,1.90
2022-11-07T07:24:01.232Z,2.67
2022-11-07T07:28:55.459Z,2.97
2022-11-07T07:33:51.104Z,2.10
2022-11-07T07:36:20.939Z,2.22
2022-11-07T07:38:51.408Z,2.88
2022-11-07T07:41:19.468Z,2.63
2022-11-07T07:43:47.224Z,2.13
2022-11-07T07:46:17.678Z,2.30
2022-11-07T07:48:44.424Z,2.22
2022-11-07T07:51:11.245Z,2.42
2022-11-07T07:56:06.887Z,2.00
2022-11-07T07:58:35.168Z,2.30
2022-11-07T08:01:02.242Z,1.73
2022-11-07T08:03:39.666Z,2.05
2022-11-07T08:06:16.183Z,2.40
2022-11-07T08:08:42.934Z,1.80
2022-11-07T08:11:10.719Z,2.30
2022-11-07T08:13:37.570Z,2.40
2022-11-07T08:18:32.049Z,1.92
2022-11-07T08:23:25.559Z,2.50
2022-11-07T08:25:54.268Z,1.85
2022-11-07T08:28:23.355Z,2.50
2022-11-07T08:31:08.435Z,2.35
2022-11-07T08:33:36.372Z,2.55
2022-11-07T08:36:04.606Z,2.55
2022-11-07T08:38:33.931Z,1.88
2022-11-07T08:41:00.911Z,2.00
2022-11-07T08:43:27.847Z,1.70
2022-11-07T08:45:55.182Z,2.70
2022-11-07T08:48:23.222Z,2.30
2022-11-07T08:50:57.890Z,2.15
2022-11-07T08:53:26.261Z,2.30
2022-11-07T08:55:53.220Z,1.92
2022-11-07T08:58:20.444Z,2.38
2022-11-07T09:00:48.165Z,2.38
2022-11-07T09:06:02.584Z,1.88
2022-11-07T09:08:29.295Z,1.83
2022-11-07T09:10:56.146Z,1.90
2022-11-07T09:15:51.751Z,2.40
2022-11-07T09:18:19.795Z,2.00
2022-11-07T09:20:47.347Z,1.95
2022-11-07T09:23:14.606Z,2.22
2022-11-07T09:25:41.734Z,2.58
2022-11-07T09:28:08.950Z,2.00
2022-11-07T09:30:35.706Z,2.17
2022-11-07T09:33:02.526Z,2.15
2022-11-07T09:35:29.300Z,2.22
2022-11-07T09:37:56.126Z,2.15
2022-11-07T09:40:40.698Z,3.25
2022-11-07T09:43:30.816Z,3.58
2022-11-07T09:46:09.673Z,2.15
2022-11-07T09:48:55.943Z,2.35
2022-11-07T09:51:35.530Z,1.77
2022-11-07T09:54:11.029Z,2.67
2022-11-07T09:56:40.951Z,2.60
2022-11-07T09:59:14.493Z,2.10
2022-11-07T10:01:42.018Z,1.63
2022-11-07T10:04:24.704Z,2.05
2022-11-07T10:07:03.943Z,2.15
2022-11-07T10:09:47.240Z,1.60
2022-11-07T10:12:22.831Z,1.90
2022-11-07T10:14:49.594Z,2.10
2022-11-07T10:20:17.460Z,2.53
2022-11-07T10:23:23.110Z,1.63
2022-11-07T10:26:15.374Z,2.00
2022-11-07T10:28:53.226Z,1.63
2022-11-07T10:31:20.865Z,2.33
2022-11-07T10:34:00.198Z,2.42
2022-11-07T10:36:32.633Z,1.95
2022-11-07T10:39:01.709Z,1.88
2022-11-07T10:41:31.429Z,1.73
2022-11-07T10:44:08.336Z,1.60
2022-11-07T10:46:46.617Z,1.77
2022-11-07T10:49:29.177Z,1.55
2022-11-07T10:52:07.636Z,1.83
2022-11-07T10:54:34.358Z,2.08
2022-11-07T10:57:05.080Z,1.70
2022-11-07T10:59:36.878Z,1.85
2022-11-07T11:02:18.258Z,1.85
2022-11-07T11:04:56.610Z,1.80
2022-11-07T11:07:35.238Z,2.45
2022-11-07T11:10:03.588Z,2.83
2022-11-07T11:12:34.583Z,1.65
2022-11-07T11:15:14.108Z,1.67
2022-11-07T11:17:41.318Z,2.33
2022-11-07T11:20:55.201Z,2.13
2022-11-07T11:23:30.126Z,1.90
2022-11-07T11:26:07.488Z,2.13
2022-11-07T11:31:06.730Z,1.70
2022-11-07T11:33:48.935Z,1.80
2022-11-07T11:36:24.056Z,2.22
2022-11-07T11:38:54.711Z,2.30
2022-11-07T11:41:32.648Z,2.58
2022-11-07T11:44:16.666Z,2.05
2022-11-07T11:46:49.043Z,3.10
2022-11-07T11:49:23.251Z,2.42
2022-11-07T11:51:59.182Z,3.13
2022-11-07T11:54:26.470Z,2.20
2022-11-07T11:57:04.897Z,3.03
2022-11-07T12:00:09.128Z,1.92
2022-11-07T12:03:14.253Z,2.83
2022-11-07T12:06:07.336Z,2.28
2022-11-07T12:09:05.557Z,2.45
2022-11-07T12:12:09.590Z,2.90
2022-11-07T12:14:58.506Z,3.30
2022-11-07T12:17:25.319Z,3.67
2022-11-07T12:22:32.577Z,2.35
2022-11-07T12:25:15.733Z,1.98
2022-11-07T12:28:05.823Z,2.05
2022-11-07T12:31:00.188Z,2.75
2022-11-07T12:33:36.886Z,2.13
2022-11-07T12:36:11.758Z,2.30
2022-11-07T12:39:20.907Z,1.95
2022-11-07T12:44:43.603Z,1.52
2022-11-07T12:47:38.434Z,2.10
2022-11-07T12:50:40.439Z,2.10
2022-11-07T12:53:17.643Z,1.90
2022-11-07T12:58:34.430Z,2.45
2022-11-07T13:01:02.994Z,2.05
2022-11-07T13:03:46.172Z,2.28
2022-11-07T13:06:27.620Z,2.17
2022-11-07T13:09:09.639Z,1.70
2022-11-07T13:11:39.588Z,1.90
2022-11-07T13:14:24.065Z,2.53
2022-11-07T13:17:03.303Z,1.60
2022-11-07T13:19:34.196Z,2.25
2022-11-07T13:22:07.555Z,2.47
2022-11-07T13:24:38.866Z,2.03
2022-11-07T13:27:22.450Z,2.17
2022-11-07T13:29:49.446Z,1.92
2022-11-07T13:32:16.884Z,1.77
2022-11-07T13:34:59.255Z,1.73
2022-11-07T13:37:37.693Z,2.35
2022-11-07T13:40:23.618Z,1.85
2022-11-07T13:42:59.171Z,1.90
2022-11-07T13:45:42.325Z,1.85
2022-11-07T13:48:24.412Z,1.80
2022-11-07T13:51:15.982Z,2.22
2022-11-07T13:53:54.982Z,1.90
2022-11-07T13:56:30.091Z,1.92
2022-11-07T13:58:58.019Z,2.55
2022-11-07T14:01:25.053Z,1.90
2022-11-07T14:03:51.884Z,1.92
2022-11-07T14:06:18.872Z,2.78
2022-11-07T14:08:48.008Z,1.48
2022-11-07T14:11:23.296Z,2.10
2022-11-07T14:13:54.822Z,1.88
2022-11-07T14:16:24.865Z,2.15
2022-11-07T14:18:56.662Z,2.20
2022-11-07T14:21:28.069Z,2.05
2022-11-07T14:23:55.219Z,1.90
2022-11-07T14:26:28.122Z,1.70
2022-11-07T14:28:56.863Z,1.85
2022-11-07T14:31:36.304Z,2.13
2022-11-07T14:34:18.927Z,1.80
2022-11-07T14:36:50.781Z,2.20
2022-11-07T14:39:19.154Z,2.20
2022-11-07T14:41:48.481Z,1.52
2022-11-07T14:44:19.027Z,1.95
2022-11-07T14:46:46.396Z,1.67
2022-11-07T14:49:24.199Z,1.80
2022-11-07T14:51:52.772Z,2.13
2022-11-07T14:54:21.376Z,3.05
2022-11-07T14:56:53.411Z,1.38
2022-11-07T14:59:22.296Z,2.08
2022-11-07T15:02:05.961Z,3.17
2022-11-07T15:04:39.323Z,2.65
2022-11-07T15:07:11.652Z,2.17
2022-11-07T15:09:40.724Z,1.85
2022-11-07T15:12:19.426Z,2.15
2022-11-07T15:15:00.699Z,2.40
2022-11-07T15:17:30.519Z,1.67
2022-11-07T15:20:04.241Z,2.40
2022-11-07T15:22:38.848Z,1.77
2022-11-07T15:25:27.326Z,2.75
2022-11-07T15:27:54.676Z,1.83
2022-11-07T15:30:26.767Z,2.22
2022-11-07T15:32:54.035Z,2.33
2022-11-07T15:38:17.955Z,1.67
2022-11-07T15:40:45.101Z,2.20
2022-11-07T15:45:39.364Z,2.13
2022-11-07T15:48:07.322Z,1.70
2022-11-07T15:50:35.860Z,2.42
2022-11-07T15:53:02.612Z,2.08
2022-11-07T15:55:29.584Z,2.67
2022-11-07T16:00:25.575Z,1.85
2022-11-07T16:02:52.964Z,2.35
2022-11-07T16:05:20.046Z,1.83
2022-11-07T16:07:48.562Z,2.03
2022-11-07T16:10:20.683Z,1.83
2022-11-07T16:12:48.923Z,2.05
2022-11-07T16:15:17.387Z,2.50
2022-11-07T16:17:44.489Z,2.20
2022-11-07T16:20:23.099Z,2.25
2022-11-07T16:22:50.645Z,2.03
2022-11-07T16:25:22.504Z,2.33
2022-11-07T16:27:55.575Z,2.33
2022-11-07T16:30:23.064Z,2.30
2022-11-07T16:32:49.847Z,2.20
2022-11-07T16:37:43.970Z,2.10
2022-11-07T16:40:15.248Z,2.63
2022-11-07T16:42:42.219Z,3.45
2022-11-07T16:47:39.442Z,3.33
2022-11-07T16:50:14.472Z,2.95
2022-11-07T16:52:41.309Z,2.72
2022-11-07T16:55:15.222Z,2.63
2022-11-07T16:57:42.065Z,2.30
2022-11-07T17:02:46.884Z,2.35
2022-11-07T17:05:14.349Z,2.63
2022-11-07T17:07:41.304Z,2.47
2022-11-07T17:12:35.071Z,2.85
2022-11-07T17:15:01.901Z,3.30
2022-11-07T17:19:55.485Z,2.65
2022-11-07T17:22:22.276Z,3.63
2022-11-07T17:24:49.223Z,3.58
2022-11-07T17:29:48.186Z,3.05
2022-11-07T17:32:15.077Z,3.05
2022-11-07T17:37:17.514Z,3.92
2022-11-07T17:39:45.555Z,4.20
2022-11-07T17:42:13.131Z,5.43
2022-11-07T17:44:40.301Z,3.08
2022-11-07T17:47:18.680Z,3.97
2022-11-07T17:49:46.264Z,3.88
2022-11-07T17:52:12.972Z,3.78
2022-11-07T17:54:39.696Z,2.65
2022-11-07T17:57:08.895Z,2.83
2022-11-07T17:59:35.758Z,2.95
2022-11-07T18:04:29.248Z,2.95
2022-11-07T18:06:55.936Z,3.28
2022-11-07T18:09:22.663Z,3.28
2022-11-07T18:11:49.407Z,3.20
2022-11-07T18:14:16.196Z,3.05
2022-11-07T18:16:43.170Z,3.58
2022-11-07T18:21:36.949Z,3.10
2022-11-07T18:24:03.825Z,3.13
2022-11-07T18:29:02.796Z,4.43
2022-11-07T18:31:29.660Z,3.97
2022-11-07T18:36:28.394Z,4.55
2022-11-07T18:38:55.380Z,4.43
2022-11-07T18:43:51.246Z,5.53
2022-11-07T18:48:50.595Z,4.38
2022-11-07T18:51:21.235Z,4.63
2022-11-07T18:53:49.121Z,4.57
2022-11-07T18:56:16.897Z,5.13
2022-11-07T18:58:44.353Z,2.95
2022-11-07T19:01:17.778Z,3.20
2022-11-07T19:03:45.945Z,3.45
2022-11-07T19:06:17.671Z,4.00
2022-11-07T19:08:47.258Z,3.42
2022-11-07T19:11:18.268Z,3.83
2022-11-07T19:13:46.071Z,3.70
2022-11-07T19:16:16.188Z,3.22
2022-11-07T19:18:49.369Z,4.53
2022-11-07T19:21:19.994Z,4.63
2022-11-07T19:23:48.058Z,4.38
2022-11-07T19:26:15.474Z,3.83
2022-11-07T19:28:42.991Z,4.93
2022-11-07T19:31:12.836Z,4.90
2022-11-07T19:33:41.736Z,4.18
2022-11-07T19:36:17.035Z,3.65
2022-11-07T19:38:44.748Z,4.43
2022-11-07T19:41:12.755Z,4.40
2022-11-07T19:43:42.328Z,4.72
2022-11-07T19:46:11.850Z,3.95
2022-11-07T19:48:38.845Z,4.32
2022-11-07T19:51:07.335Z,4.40
2022-11-07T19:53:34.280Z,5.05
2022-11-07T19:56:09.122Z,5.20
2022-11-07T19:58:39.719Z,5.18
2022-11-07T20:01:18.781Z,5.78
2022-11-07T20:03:48.163Z,5.45
2022-11-07T20:06:17.189Z,4.70
2022-11-07T20:08:46.262Z,5.30
2022-11-07T20:11:18.741Z,5.18
2022-11-07T20:13:46.316Z,5.00
2022-11-07T20:16:13.373Z,5.53
2022-11-07T20:18:40.808Z,5.82
2022-11-07T20:21:13.080Z,5.45
2022-11-07T20:23:41.508Z,5.65
2022-11-07T20:26:11.059Z,5.50
2022-11-07T20:28:38.479Z,4.70
2022-11-07T20:31:12.656Z,5.47
2022-11-07T20:33:39.501Z,5.60
2022-11-07T20:36:08.883Z,6.13
2022-11-07T20:38:36.367Z,5.10
2022-11-07T20:41:05.032Z,5.15
2022-11-07T20:43:33.984Z,5.18
2022-11-07T20:46:09.763Z,4.45
2022-11-07T20:48:36.996Z,4.55
2022-11-07T20:51:11.127Z,4.93
2022-11-07T20:53:39.251Z,4.85
2022-11-07T20:56:07.043Z,5.97
2022-11-07T20:58:38.132Z,4.63
2022-11-07T21:01:06.564Z,5.68
2022-11-07T21:03:34.750Z,4.65
2022-11-07T21:06:01.546Z,4.78
2022-11-07T21:08:31.870Z,4.97
2022-11-07T21:11:01.435Z,4.28
2022-11-07T21:13:28.178Z,4.80
2022-11-07T21:15:54.965Z,5.53
2022-11-07T21:20:48.501Z,4.72
2022-11-07T21:23:15.920Z,5.13
2022-11-07T21:25:45.774Z,4.57
2022-11-07T21:28:18.126Z,4.88
2022-11-07T21:30:58.559Z,5.13
2022-11-07T21:33:25.639Z,4.75
2022-11-07T21:35:52.512Z,5.05
2022-11-07T21:40:46.117Z,4.30
2022-11-07T21:45:40.749Z,4.15
2022-11-07T21:48:07.925Z,3.90
2022-11-07T21:50:44.751Z,4.22
2022-11-07T21:53:12.184Z,5.10
2022-11-07T21:58:05.906Z,3.65
2022-11-07T22:03:04.632Z,3.47
2022-11-07T22:05:31.701Z,4.38
2022-11-07T22:07:58.561Z,4.15
2022-11-07T22:12:52.758Z,4.82
2022-11-07T22:15:19.586Z,4.72
2022-11-07T22:17:46.439Z,5.75
2022-11-07T22:20:13.279Z,4.38
2022-11-07T22:22:40.687Z,4.15
2022-11-07T22:25:08.046Z,5.85
2022-11-07T22:27:37.188Z,5.05
2022-11-07T22:30:04.956Z,6.53
2022-11-07T22:32:31.896Z,6.63
2022-11-07T22:37:25.686Z,7.38
2022-11-07T22:39:52.531Z,7.10
2022-11-07T22:42:23.649Z,8.32
2022-11-07T22:44:51.532Z,5.78
2022-11-07T22:47:18.473Z,4.07
2022-11-07T22:49:45.347Z,3.50
2022-11-07T22:52:12.237Z,5.75
2022-11-07T22:57:06.477Z,5.57
2022-11-07T22:59:33.297Z,6.47
2022-11-07T23:02:00.196Z,7.47
2022-11-07T23:06:59.666Z,4.35
2022-11-07T23:09:26.459Z,4.95
2022-11-07T23:11:55.817Z,5.65
2022-11-07T23:14:25.648Z,5.72
2022-11-07T23:16:55.475Z,5.35
2022-11-07T23:19:24.617Z,6.85
2022-11-07T23:21:52.606Z,5.53
2022-11-07T23:24:20.781Z,4.88
2022-11-07T23:26:48.267Z,4.85
2022-11-07T23:29:19.956Z,5.60
2022-11-07T23:31:48.730Z,4.82
2022-11-07T23:34:15.867Z,4.78
2022-11-07T23:36:46.622Z,5.18
2022-11-07T23:39:16.540Z,4.93
2022-11-07T23:41:44.188Z,4.88
2022-11-07T23:44:11.811Z,4.93
2022-11-07T23:46:57.735Z,4.15
2022-11-07T23:49:42.894Z,4.15
2022-11-07T23:52:09.759Z,3.65
2022-11-07T23:54:55.372Z,3.78
2022-11-07T23:57:22.135Z,4.22
